createdAt,value
2018-07-16T16:12:23.776Z,0
2018-07-16T16:15:30.744Z,0
2018-07-16T16:16:46.652Z,0
2018-07-16T16:18:02.635Z,0
2018-07-16T16:19:24.863Z,0
2018-07-16T16:22:11.921Z,5.625
2018-07-16T16:23:27.892Z,129.375
2018-07-16T16:24:43.832Z,129.375
2018-07-16T16:25:59.795Z,129.375
2018-07-16T16:27:15.717Z,129.375
2018-07-16T16:28:31.608Z,73.125
2018-07-16T16:29:47.516Z,140.625
2018-07-16T16:31:03.507Z,140.625
2018-07-16T16:32:19.493Z,230.625
2018-07-16T16:33:35.424Z,225
2018-07-16T16:34:51.305Z,225
2018-07-16T16:36:07.291Z,157.5
2018-07-16T16:37:23.209Z,95.625
2018-07-16T16:38:39.142Z,174.375
2018-07-16T16:39:55.116Z,118.125
2018-07-16T16:41:11.086Z,219.375
2018-07-16T16:42:27.247Z,213.75
2018-07-16T16:43:43.185Z,213.75
2018-07-16T16:44:59.108Z,213.75
2018-07-16T16:46:15.049Z,213.75
2018-07-16T16:47:31.010Z,208.125
2018-07-16T16:48:46.948Z,208.125
2018-07-16T16:50:02.854Z,208.125
2018-07-16T16:51:18.818Z,202.5
2018-07-16T16:52:34.836Z,202.5
2018-07-16T16:53:50.876Z,202.5
2018-07-16T16:55:06.813Z,196.875
2018-07-16T16:56:22.749Z,196.875
2018-07-16T16:57:38.755Z,191.25
2018-07-16T16:58:54.699Z,191.25
2018-07-16T17:00:10.687Z,191.25
2018-07-16T17:01:26.636Z,185.625
2018-07-16T17:02:42.673Z,174.375
2018-07-16T17:03:58.666Z,185.625
2018-07-16T17:05:14.689Z,185.625
2018-07-16T17:06:30.670Z,180
2018-07-16T17:07:46.609Z,180
2018-07-16T17:09:02.553Z,180
2018-07-16T17:10:18.487Z,180
2018-07-16T17:11:34.409Z,174.375
2018-07-16T17:12:50.327Z,174.375
2018-07-16T17:14:06.269Z,168.75
2018-07-16T17:15:22.357Z,168.75
2018-07-16T17:16:38.234Z,168.75
2018-07-16T17:17:54.130Z,163.125
2018-07-16T17:19:10.060Z,163.125
2018-07-16T17:20:26.044Z,163.125
2018-07-16T17:21:41.907Z,157.5
2018-07-16T17:22:57.856Z,157.5
2018-07-16T17:24:13.781Z,157.5
2018-07-16T17:25:29.711Z,151.875
2018-07-16T17:26:45.673Z,151.875
2018-07-16T17:28:01.567Z,151.875
2018-07-16T17:29:17.577Z,146.25
2018-07-16T17:30:34.466Z,146.25
2018-07-16T17:31:50.375Z,146.25
2018-07-16T17:33:06.326Z,146.25
2018-07-16T17:34:22.325Z,146.25
2018-07-16T17:35:38.216Z,146.25
2018-07-16T17:36:54.127Z,146.25
2018-07-16T17:38:10.045Z,140.625
2018-07-16T17:39:26.048Z,140.625
2018-07-16T17:40:41.994Z,140.625
2018-07-16T17:41:57.886Z,135
2018-07-16T17:43:13.823Z,135
2018-07-16T17:44:29.801Z,129.375
2018-07-16T17:45:45.819Z,123.75
2018-07-16T17:47:01.666Z,123.75
2018-07-16T17:48:17.619Z,118.125
2018-07-16T17:49:33.597Z,118.125
2018-07-16T17:50:49.516Z,118.125
2018-07-16T17:52:05.503Z,118.125
2018-07-16T17:53:21.492Z,118.125
2018-07-16T17:54:37.442Z,112.5
2018-07-16T17:55:53.403Z,112.5
2018-07-16T17:57:10.334Z,106.875
2018-07-16T17:58:26.285Z,106.875
2018-07-16T17:59:42.265Z,101.25
2018-07-16T18:00:58.233Z,101.25
2018-07-16T18:02:14.196Z,101.25
2018-07-16T18:03:30.124Z,95.625
2018-07-16T18:04:46.067Z,95.625
2018-07-16T18:06:02.016Z,90
2018-07-16T18:07:17.932Z,84.375
2018-07-16T18:08:33.839Z,90
2018-07-16T18:09:49.813Z,84.375
2018-07-16T18:11:05.747Z,84.375
2018-07-16T18:12:21.661Z,84.375
2018-07-16T18:13:37.586Z,78.75
2018-07-16T18:14:53.561Z,78.75
2018-07-16T18:16:09.511Z,73.125
2018-07-16T18:17:25.544Z,73.125
2018-07-16T18:18:41.570Z,73.125
2018-07-16T18:21:38.018Z,67.5
2018-07-16T18:22:55.035Z,67.5
2018-07-16T18:24:11.019Z,61.875
2018-07-16T18:25:26.985Z,61.875
2018-07-16T18:26:43.881Z,61.875
2018-07-16T18:27:59.969Z,56.25
2018-07-16T18:29:15.973Z,56.25
2018-07-16T18:30:32.138Z,56.25
2018-07-16T18:31:48.080Z,50.625
2018-07-16T18:33:03.989Z,50.625
2018-07-16T18:34:19.910Z,45
2018-07-16T18:35:35.964Z,45
2018-07-16T18:36:51.790Z,45
2018-07-16T18:39:49.362Z,39.375
2018-07-16T18:41:05.320Z,39.375
2018-07-16T18:42:21.278Z,33.75
2018-07-16T18:43:37.191Z,33.75
2018-07-16T18:44:53.134Z,28.125
2018-07-16T18:46:09.139Z,28.125
2018-07-16T18:47:25.056Z,28.125
2018-07-16T18:48:40.996Z,28.125
2018-07-16T18:49:56.979Z,28.125
2018-07-16T18:51:12.931Z,22.5
2018-07-16T18:52:28.854Z,22.5
2018-07-16T18:53:44.793Z,22.5
2018-07-16T18:55:00.729Z,22.5
2018-07-16T18:56:16.690Z,16.875
2018-07-16T18:57:32.755Z,16.875
2018-07-16T18:58:48.732Z,16.875
2018-07-16T19:00:04.712Z,16.875
2018-07-16T19:01:20.617Z,11.25
2018-07-16T19:02:36.621Z,11.25
2018-07-16T19:03:52.635Z,11.25
2018-07-16T19:05:08.561Z,11.25
2018-07-16T19:06:24.488Z,11.25
2018-07-16T19:07:40.411Z,5.625
2018-07-16T19:08:56.385Z,5.625
2018-07-16T19:10:12.404Z,5.625
2018-07-16T19:11:28.433Z,5.625
2018-07-16T19:12:44.355Z,5.625
2018-07-16T19:14:00.329Z,5.625
2018-07-16T19:16:56.904Z,5.625
2018-07-16T19:18:12.835Z,0
2018-07-16T19:19:28.823Z,0
2018-07-16T19:20:44.874Z,0
2018-07-16T19:22:00.943Z,0
2018-07-16T19:23:16.896Z,0
2018-07-16T19:24:32.831Z,0
2018-07-16T19:25:48.868Z,0
2018-07-16T19:27:04.808Z,0
2018-07-16T19:28:20.771Z,0
2018-07-16T19:29:36.728Z,0
2018-07-16T19:30:52.691Z,0
2018-07-16T19:32:08.654Z,0
2018-07-16T19:33:24.610Z,0
2018-07-16T19:34:40.592Z,0
2018-07-16T19:35:56.694Z,0
2018-07-16T19:37:12.593Z,0
2018-07-16T19:38:28.536Z,0
2018-07-16T19:39:44.512Z,0
2018-07-16T19:41:00.435Z,0
2018-07-16T19:42:16.394Z,0
2018-07-16T19:43:32.379Z,0
2018-07-16T19:44:48.293Z,0
2018-07-16T19:46:04.229Z,0
2018-07-16T19:47:20.210Z,0
2018-07-16T19:48:36.135Z,0
2018-07-16T19:49:52.112Z,0
2018-07-16T19:51:08.099Z,0
2018-07-16T19:52:24.110Z,0
2018-07-16T19:53:40.027Z,0
2018-07-16T19:54:56.012Z,0
2018-07-16T19:56:11.952Z,0
2018-07-16T19:57:27.928Z,0
2018-07-16T19:58:43.976Z,0
2018-07-16T19:59:59.957Z,0
2018-07-16T20:01:15.918Z,0
2018-07-16T20:02:31.940Z,0
2018-07-16T20:03:48.010Z,0
2018-07-16T20:05:04.985Z,0
2018-07-16T20:06:20.941Z,0
2018-07-16T20:07:36.889Z,0
2018-07-16T20:08:52.993Z,0
2018-07-16T20:10:10.010Z,0
2018-07-16T20:11:25.857Z,0
2018-07-16T20:12:41.855Z,0
2018-07-16T20:13:57.783Z,0
2018-07-16T20:15:13.753Z,0
2018-07-16T20:16:29.690Z,0
2018-07-16T20:17:45.661Z,0
2018-07-16T20:19:01.690Z,0
2018-07-16T20:20:17.579Z,0
2018-07-16T20:21:33.484Z,0
2018-07-16T20:22:49.397Z,0
2018-07-16T20:24:05.356Z,0
2018-07-16T20:25:21.323Z,0
2018-07-16T20:26:37.313Z,0
2018-07-16T20:27:53.330Z,0
2018-07-16T20:29:09.292Z,0
2018-07-16T20:30:25.253Z,0
2018-07-16T20:31:41.231Z,0
2018-07-16T20:32:57.212Z,0
2018-07-16T20:34:13.208Z,0
2018-07-16T20:35:29.232Z,0
2018-07-16T20:36:45.297Z,0
2018-07-16T20:38:01.277Z,0
2018-07-16T20:39:17.322Z,0
2018-07-16T20:40:33.217Z,0
2018-07-16T20:41:49.161Z,0
2018-07-16T20:43:05.142Z,0
2018-07-16T20:44:21.047Z,0
2018-07-16T20:45:37.027Z,0
2018-07-16T20:46:53.136Z,0
2018-07-16T20:48:09.073Z,0
2018-07-16T20:49:24.982Z,0
2018-07-16T20:50:40.971Z,0
2018-07-16T20:51:56.909Z,0
2018-07-16T20:53:12.801Z,0
2018-07-16T20:54:28.702Z,0
2018-07-16T20:55:44.667Z,0
2018-07-16T20:57:00.598Z,0
2018-07-16T20:58:16.561Z,0
2018-07-16T20:59:32.511Z,0
2018-07-16T21:00:48.396Z,0
2018-07-16T21:02:04.373Z,0
2018-07-16T21:03:20.318Z,0
2018-07-16T21:04:36.206Z,0
2018-07-16T21:05:52.220Z,0
2018-07-16T21:07:08.160Z,0
2018-07-16T21:08:24.036Z,0
2018-07-16T21:09:39.943Z,0
2018-07-16T21:10:55.852Z,0
2018-07-16T21:12:11.803Z,0
2018-07-16T21:13:27.787Z,0
2018-07-16T21:14:43.772Z,0
2018-07-16T21:16:00.756Z,0
2018-07-16T21:17:16.805Z,0
2018-07-16T21:18:32.730Z,0
2018-07-16T21:19:48.652Z,0
2018-07-16T21:21:04.553Z,0
2018-07-16T21:22:20.507Z,0
2018-07-16T21:23:36.666Z,0
2018-07-16T21:24:52.618Z,0
2018-07-16T21:26:08.533Z,0
2018-07-16T21:27:24.477Z,0
2018-07-16T21:28:40.546Z,0
2018-07-16T21:29:56.458Z,0
2018-07-16T21:31:12.380Z,0
2018-07-16T21:32:28.921Z,0
2018-07-16T21:33:45.482Z,0
2018-07-16T21:35:02.442Z,0
2018-07-16T21:36:18.562Z,0
2018-07-16T21:37:55.013Z,0
2018-07-16T21:39:11.237Z,0
2018-07-16T21:40:27.329Z,0
2018-07-16T21:41:43.167Z,0
2018-07-16T21:42:59.145Z,0
2018-07-16T21:44:15.149Z,0
2018-07-16T21:45:31.216Z,0
2018-07-16T21:46:47.582Z,0
2018-07-16T21:48:03.755Z,0
2018-07-16T21:49:19.700Z,0
2018-07-16T21:50:35.644Z,0
2018-07-16T21:51:51.550Z,0
2018-07-16T21:53:07.446Z,0
2018-07-16T21:54:23.585Z,0
2018-07-16T21:55:39.486Z,0
2018-07-16T21:56:55.504Z,0
2018-07-16T21:58:11.464Z,0
2018-07-16T21:59:27.398Z,0
2018-07-16T22:00:43.596Z,0
2018-07-16T22:01:59.530Z,0
2018-07-16T22:03:15.435Z,0
2018-07-16T22:04:31.323Z,0
2018-07-16T22:05:47.227Z,0
2018-07-16T22:07:03.136Z,0
2018-07-16T22:08:19.025Z,0
2018-07-16T22:09:34.917Z,0
2018-07-16T22:10:50.820Z,0
2018-07-16T22:12:06.737Z,0
2018-07-16T22:13:22.611Z,0
2018-07-16T22:14:38.514Z,0
2018-07-16T22:15:54.444Z,0
2018-07-16T22:17:10.356Z,0
2018-07-16T22:18:26.213Z,0
2018-07-16T22:19:42.069Z,0
2018-07-16T22:20:58.016Z,0
2018-07-16T22:22:13.938Z,0
2018-07-16T22:23:29.811Z,0
2018-07-16T22:24:45.707Z,0
2018-07-16T22:26:01.590Z,0
2018-07-16T22:27:17.485Z,0
2018-07-16T22:28:33.360Z,0
2018-07-16T22:29:49.552Z,0
2018-07-16T22:31:05.448Z,0
2018-07-16T22:32:21.334Z,0
2018-07-16T22:33:37.204Z,0
2018-07-16T22:34:53.091Z,0
2018-07-16T22:36:08.979Z,0
2018-07-16T22:37:24.862Z,0
2018-07-16T22:38:40.870Z,0
2018-07-16T22:39:56.783Z,0
2018-07-16T22:41:12.668Z,0
2018-07-16T22:42:28.602Z,0
2018-07-16T22:43:44.499Z,0
2018-07-16T22:45:00.367Z,0
2018-07-16T22:46:16.239Z,0
2018-07-16T22:47:32.119Z,0
2018-07-16T22:48:48.011Z,0
2018-07-16T22:50:03.890Z,0
2018-07-16T22:51:19.771Z,0
2018-07-16T22:52:35.641Z,0
2018-07-16T22:53:51.536Z,0
2018-07-16T22:55:07.447Z,0
2018-07-16T22:56:23.480Z,0
2018-07-16T22:57:39.364Z,0
2018-07-16T22:58:55.457Z,0
2018-07-16T23:00:11.343Z,0
2018-07-16T23:01:27.237Z,0
2018-07-16T23:02:43.143Z,0
2018-07-16T23:03:59.062Z,0
2018-07-16T23:05:14.984Z,0
2018-07-16T23:06:30.884Z,0
2018-07-16T23:07:46.759Z,0
2018-07-16T23:09:02.843Z,0
2018-07-16T23:10:18.700Z,0
2018-07-16T23:11:34.560Z,0
2018-07-16T23:12:50.458Z,0
2018-07-16T23:14:06.395Z,0
2018-07-16T23:15:22.285Z,0
2018-07-16T23:16:38.141Z,0
2018-07-16T23:17:54.009Z,0
2018-07-16T23:19:09.912Z,0
2018-07-16T23:20:25.770Z,0
2018-07-16T23:21:41.619Z,0
2018-07-16T23:22:57.506Z,0
2018-07-16T23:24:13.468Z,0
2018-07-16T23:25:29.331Z,0
2018-07-16T23:26:45.214Z,0
2018-07-16T23:28:01.341Z,0
2018-07-16T23:29:17.234Z,0
2018-07-16T23:30:33.087Z,0
2018-07-16T23:31:48.963Z,0
2018-07-16T23:33:04.864Z,0
2018-07-16T23:34:20.726Z,0
2018-07-16T23:35:36.601Z,0
2018-07-16T23:36:52.478Z,0
2018-07-16T23:38:08.347Z,0
2018-07-16T23:39:24.219Z,0
2018-07-16T23:40:40.122Z,0
2018-07-16T23:41:55.986Z,0
2018-07-16T23:43:11.884Z,0
2018-07-16T23:44:27.765Z,0
2018-07-16T23:45:43.652Z,0
2018-07-16T23:46:59.531Z,0
2018-07-16T23:48:15.410Z,0
2018-07-16T23:49:31.283Z,0
2018-07-16T23:50:47.183Z,0
2018-07-16T23:52:03.051Z,0
2018-07-16T23:53:18.913Z,0
2018-07-16T23:54:34.807Z,0
2018-07-16T23:55:50.681Z,0
2018-07-16T23:57:06.532Z,0
2018-07-16T23:58:22.450Z,0
2018-07-16T23:59:38.323Z,0
